createdAt,value
2019-03-24T00:00:31.373Z,0.00
2019-03-24T00:01:40.787Z,0.00
2019-03-24T00:02:31.112Z,0.00
2019-03-24T00:03:30.980Z,0.00
2019-03-24T00:04:30.851Z,0.00
2019-03-24T00:05:30.720Z,0.00
2019-03-24T00:06:32.315Z,0.00
2019-03-24T00:07:30.458Z,0.00
2019-03-24T00:08:30.330Z,0.00
2019-03-24T00:09:30.198Z,0.00
2019-03-24T00:10:30.070Z,0.00
2019-03-24T00:11:29.940Z,0.00
2019-03-24T00:12:29.809Z,0.00
2019-03-24T00:13:29.694Z,0.00
2019-03-24T00:14:29.553Z,0.00
2019-03-24T00:15:29.419Z,0.00
2019-03-24T00:16:29.288Z,0.00
2019-03-24T00:17:29.159Z,0.00
2019-03-24T00:18:29.028Z,0.00
2019-03-24T00:19:28.897Z,0.00
2019-03-24T00:20:28.771Z,0.00
2019-03-24T00:21:28.640Z,0.00
2019-03-24T00:22:28.515Z,0.00
2019-03-24T00:23:28.375Z,0.00
2019-03-24T00:24:28.244Z,0.00
2019-03-24T00:25:28.116Z,0.00
2019-03-24T00:26:27.984Z,0.00
2019-03-24T00:27:27.854Z,0.00
2019-03-24T00:28:27.728Z,0.00
2019-03-24T00:29:27.594Z,0.00
2019-03-24T00:30:27.466Z,0.00
2019-03-24T00:31:27.332Z,0.00
2019-03-24T00:32:27.204Z,0.00
2019-03-24T00:33:27.081Z,0.00
2019-03-24T00:34:26.945Z,0.00
2019-03-24T00:35:26.811Z,0.00
2019-03-24T00:36:26.681Z,0.00
2019-03-24T00:37:26.554Z,0.00
2019-03-24T00:38:26.422Z,0.00
2019-03-24T00:39:26.296Z,0.00
2019-03-24T00:40:26.161Z,0.00
2019-03-24T00:41:26.032Z,0.00
2019-03-24T00:42:25.905Z,0.00
2019-03-24T00:43:25.773Z,0.00
2019-03-24T00:44:25.638Z,0.00
2019-03-24T00:45:36.251Z,0.00
2019-03-24T00:46:25.380Z,0.00
2019-03-24T00:47:25.249Z,0.00
2019-03-24T00:48:25.922Z,0.00
2019-03-24T00:49:24.992Z,0.00
2019-03-24T00:50:24.858Z,0.00
2019-03-24T00:51:26.319Z,0.00
2019-03-24T00:52:24.599Z,0.00
2019-03-24T00:53:24.468Z,0.00
2019-03-24T00:54:24.336Z,0.00
2019-03-24T00:55:24.207Z,0.00
2019-03-24T00:56:24.077Z,0.00
2019-03-24T00:57:23.946Z,0.00
2019-03-24T00:58:23.821Z,0.00
2019-03-24T00:59:23.686Z,0.00
2019-03-24T01:00:23.555Z,0.00
2019-03-24T01:01:23.426Z,0.00
2019-03-24T01:02:23.294Z,0.00
2019-03-24T01:03:23.164Z,0.00
2019-03-24T01:04:23.031Z,0.00
2019-03-24T01:05:22.904Z,0.00
2019-03-24T01:06:22.774Z,0.00
2019-03-24T01:07:22.643Z,0.00
2019-03-24T01:08:22.517Z,0.00
2019-03-24T01:09:22.383Z,0.00
2019-03-24T01:10:22.253Z,0.00
2019-03-24T01:11:22.120Z,0.00
2019-03-24T01:12:22.019Z,0.00
2019-03-24T01:13:21.872Z,0.00
2019-03-24T01:14:21.732Z,0.00
2019-03-24T01:15:21.598Z,0.00
2019-03-24T01:16:21.469Z,0.00
2019-03-24T01:17:21.984Z,0.00
2019-03-24T01:18:21.210Z,0.00
2019-03-24T01:19:21.091Z,0.00
2019-03-24T01:20:20.955Z,0.00
2019-03-24T01:21:20.817Z,0.00
2019-03-24T01:22:20.688Z,0.00
2019-03-24T01:23:20.557Z,0.00
2019-03-24T01:24:20.427Z,0.00
2019-03-24T01:25:20.297Z,0.00
2019-03-24T01:26:20.166Z,0.00
2019-03-24T01:27:20.037Z,0.00
2019-03-24T01:28:19.906Z,0.00
2019-03-24T01:29:19.777Z,0.00
2019-03-24T01:30:19.646Z,0.00
2019-03-24T01:31:19.515Z,0.00
2019-03-24T01:32:19.386Z,0.00
2019-03-24T01:33:19.253Z,0.00
2019-03-24T01:34:19.124Z,0.00
2019-03-24T01:35:18.998Z,0.00
2019-03-24T01:36:18.863Z,0.00
2019-03-24T01:37:18.732Z,0.00
2019-03-24T01:38:18.619Z,0.00
2019-03-24T01:39:18.496Z,0.00
2019-03-24T01:40:18.339Z,0.00
2019-03-24T01:41:18.222Z,0.00
2019-03-24T01:42:18.080Z,0.00
2019-03-24T01:43:17.950Z,0.00
2019-03-24T01:44:17.818Z,0.00
2019-03-24T01:45:17.690Z,0.00
2019-03-24T01:46:17.994Z,0.00
2019-03-24T01:47:17.426Z,0.00
2019-03-24T01:48:17.297Z,0.00
2019-03-24T01:49:17.177Z,0.00
2019-03-24T01:50:17.042Z,0.00
2019-03-24T01:51:16.903Z,0.00
2019-03-24T01:52:16.782Z,0.00
2019-03-24T01:53:16.644Z,0.00
2019-03-24T01:54:16.513Z,0.00
2019-03-24T01:55:16.382Z,0.00
2019-03-24T01:56:16.252Z,0.00
2019-03-24T01:57:16.121Z,0.00
2019-03-24T01:58:15.990Z,0.00
2019-03-24T01:59:15.862Z,0.00
2019-03-24T02:00:15.734Z,0.00
2019-03-24T02:01:15.602Z,0.00
2019-03-24T02:02:15.517Z,0.00
2019-03-24T02:03:15.339Z,0.00
2019-03-24T02:04:15.207Z,0.00
2019-03-24T02:05:15.082Z,0.00
2019-03-24T02:06:14.950Z,0.00
2019-03-24T02:07:14.818Z,0.00
2019-03-24T02:08:14.686Z,0.00
2019-03-24T02:09:14.561Z,0.00
2019-03-24T02:10:14.428Z,0.00
2019-03-24T02:11:14.295Z,0.00
2019-03-24T02:12:14.163Z,0.00
2019-03-24T02:13:14.032Z,0.00
2019-03-24T02:14:13.905Z,0.00
2019-03-24T02:15:14.009Z,0.00
2019-03-24T02:16:13.642Z,0.00
2019-03-24T02:17:13.512Z,0.00
2019-03-24T02:18:13.381Z,0.00
2019-03-24T02:19:13.254Z,0.00
2019-03-24T02:20:13.120Z,0.00
2019-03-24T02:21:12.996Z,0.00
2019-03-24T02:22:12.859Z,0.00
2019-03-24T02:23:12.730Z,0.00
2019-03-24T02:24:12.604Z,0.00
2019-03-24T02:25:34.013Z,0.00
2019-03-24T02:26:12.341Z,0.00
2019-03-24T02:27:12.208Z,0.00
2019-03-24T02:28:12.077Z,0.00
2019-03-24T02:29:11.948Z,0.00
2019-03-24T02:30:11.815Z,0.00
2019-03-24T02:31:11.706Z,0.00
2019-03-24T02:32:11.556Z,0.00
2019-03-24T02:33:11.422Z,0.00
2019-03-24T02:34:11.309Z,0.00
2019-03-24T02:35:11.164Z,0.00
2019-03-24T02:36:11.033Z,0.00
2019-03-24T02:37:10.900Z,0.00
2019-03-24T02:38:10.771Z,0.00
2019-03-24T02:39:10.644Z,0.00
2019-03-24T02:40:10.511Z,0.00
2019-03-24T02:41:10.381Z,0.00
2019-03-24T02:42:10.271Z,0.00
2019-03-24T02:43:10.119Z,0.00
2019-03-24T02:44:10.045Z,0.00
2019-03-24T02:45:09.864Z,0.00
2019-03-24T02:46:23.144Z,0.00
2019-03-24T02:47:09.597Z,0.00
2019-03-24T02:48:09.465Z,0.00
2019-03-24T02:49:09.336Z,0.00
2019-03-24T02:50:09.204Z,0.00
2019-03-24T02:51:09.073Z,0.00
2019-03-24T02:52:08.941Z,0.00
2019-03-24T02:53:08.817Z,0.00
2019-03-24T02:54:08.687Z,0.00
2019-03-24T02:55:08.556Z,0.00
2019-03-24T02:56:08.428Z,0.00
2019-03-24T02:57:08.294Z,0.00
2019-03-24T02:58:08.166Z,0.00
2019-03-24T02:59:08.051Z,0.00
2019-03-24T03:00:07.898Z,0.00
2019-03-24T03:01:07.767Z,0.00
2019-03-24T03:02:07.641Z,0.00
2019-03-24T03:03:07.506Z,0.00
2019-03-24T03:04:07.376Z,0.00
2019-03-24T03:05:07.252Z,0.00
2019-03-24T03:06:07.115Z,0.00
2019-03-24T03:07:06.988Z,0.00
2019-03-24T03:08:06.861Z,0.00
2019-03-24T03:09:06.725Z,0.00
2019-03-24T03:10:06.597Z,0.00
2019-03-24T03:11:06.464Z,0.00
2019-03-24T03:12:06.332Z,0.00
2019-03-24T03:13:06.209Z,0.00
2019-03-24T03:14:06.072Z,0.00
2019-03-24T03:15:05.941Z,0.00
2019-03-24T03:16:05.814Z,0.00
2019-03-24T03:17:05.689Z,0.00
2019-03-24T03:18:05.567Z,0.00
2019-03-24T03:19:05.421Z,0.00
2019-03-24T03:20:05.293Z,0.00
2019-03-24T03:21:05.160Z,0.00
2019-03-24T03:22:05.032Z,0.00
2019-03-24T03:23:04.917Z,0.00
2019-03-24T03:24:04.768Z,0.00
2019-03-24T03:25:04.638Z,0.00
2019-03-24T03:26:04.507Z,0.00
2019-03-24T03:27:04.388Z,0.00
2019-03-24T03:28:04.247Z,0.00
2019-03-24T03:29:04.139Z,0.00
2019-03-24T03:30:03.988Z,0.00
2019-03-24T03:31:03.867Z,0.00
2019-03-24T03:32:03.728Z,0.00
2019-03-24T03:33:03.611Z,0.00
2019-03-24T03:34:03.465Z,0.00
2019-03-24T03:35:03.349Z,0.00
2019-03-24T03:36:03.254Z,0.00
2019-03-24T03:37:03.080Z,0.00
2019-03-24T03:38:02.944Z,0.00
2019-03-24T03:39:02.813Z,0.00
2019-03-24T03:40:02.684Z,0.00
2019-03-24T03:41:02.553Z,0.00
2019-03-24T03:42:02.435Z,0.00
2019-03-24T03:43:02.290Z,0.00
2019-03-24T03:44:02.165Z,0.00
2019-03-24T03:45:02.035Z,0.00
2019-03-24T03:46:01.902Z,0.00
2019-03-24T03:47:01.772Z,0.00
2019-03-24T03:48:01.637Z,0.00
2019-03-24T03:49:01.516Z,0.00
2019-03-24T03:50:01.380Z,0.00
2019-03-24T03:51:01.248Z,0.00
2019-03-24T03:52:01.119Z,0.00
2019-03-24T03:53:00.989Z,0.00
2019-03-24T03:54:00.862Z,0.00
2019-03-24T03:55:00.724Z,0.00
2019-03-24T03:56:00.595Z,0.00
2019-03-24T03:57:00.465Z,0.00
2019-03-24T03:58:00.333Z,0.00
2019-03-24T03:59:00.203Z,0.00
2019-03-24T04:00:00.121Z,0.00
2019-03-24T04:00:59.942Z,0.00
2019-03-24T04:01:59.809Z,0.00
2019-03-24T04:02:59.685Z,0.00
2019-03-24T04:03:59.556Z,0.00
2019-03-24T04:04:59.421Z,0.00
2019-03-24T04:05:59.301Z,0.00
2019-03-24T04:06:59.159Z,0.00
2019-03-24T04:07:59.028Z,0.00
2019-03-24T04:08:58.900Z,0.00
2019-03-24T04:09:58.767Z,0.00
2019-03-24T04:10:58.637Z,0.00
2019-03-24T04:11:58.511Z,0.00
2019-03-24T04:12:58.385Z,0.00
2019-03-24T04:13:58.249Z,0.00
2019-03-24T04:14:58.113Z,0.00
2019-03-24T04:15:57.985Z,0.00
2019-03-24T04:17:06.825Z,0.00
2019-03-24T04:17:57.723Z,0.00
2019-03-24T04:18:57.600Z,0.00
2019-03-24T04:19:57.465Z,0.00
2019-03-24T04:20:57.332Z,0.00
2019-03-24T04:21:57.201Z,0.00
2019-03-24T04:22:57.143Z,0.00
2019-03-24T04:23:56.943Z,0.00
2019-03-24T04:24:56.811Z,0.00
2019-03-24T04:25:56.678Z,0.00
2019-03-24T04:26:56.551Z,0.00
2019-03-24T04:27:56.425Z,0.00
2019-03-24T04:28:56.287Z,0.00
2019-03-24T04:29:56.157Z,0.00
2019-03-24T04:30:56.035Z,0.00
2019-03-24T04:31:55.900Z,0.00
2019-03-24T04:32:55.768Z,0.00
2019-03-24T04:33:55.637Z,0.00
2019-03-24T04:34:55.505Z,0.00
2019-03-24T04:35:55.377Z,0.00
2019-03-24T04:36:55.247Z,0.00
2019-03-24T04:37:55.116Z,0.00
2019-03-24T04:38:54.988Z,0.00
2019-03-24T04:39:54.858Z,0.00
2019-03-24T04:40:54.845Z,0.00
2019-03-24T04:41:54.669Z,0.00
2019-03-24T04:42:54.466Z,0.00
2019-03-24T04:43:54.334Z,0.00
2019-03-24T04:44:54.200Z,0.00
2019-03-24T04:45:54.072Z,0.00
2019-03-24T04:46:53.943Z,0.00
2019-03-24T04:47:53.810Z,0.00
2019-03-24T04:48:53.679Z,0.00
2019-03-24T04:49:53.548Z,0.00
2019-03-24T04:50:53.420Z,0.00
2019-03-24T04:51:53.292Z,0.00
2019-03-24T04:52:53.161Z,0.00
2019-03-24T04:53:53.038Z,4.00
2019-03-24T04:54:52.897Z,4.00
2019-03-24T04:55:52.767Z,0.00
2019-03-24T04:56:52.636Z,4.00
2019-03-24T04:57:52.507Z,0.00
2019-03-24T04:58:52.374Z,4.00
2019-03-24T04:59:52.246Z,4.00
2019-03-24T05:00:52.120Z,8.00
2019-03-24T05:01:51.985Z,8.00
2019-03-24T05:02:51.856Z,8.00
2019-03-24T05:03:51.726Z,12.00
2019-03-24T05:04:51.675Z,12.00
2019-03-24T05:05:51.467Z,12.00
2019-03-24T05:06:51.331Z,16.00
2019-03-24T05:07:51.202Z,20.00
2019-03-24T05:08:51.077Z,24.00
2019-03-24T05:09:50.946Z,28.00
2019-03-24T05:10:50.813Z,32.00
2019-03-24T05:11:50.680Z,36.00
2019-03-24T05:12:50.550Z,44.00
2019-03-24T05:13:50.418Z,44.00
2019-03-24T05:14:50.288Z,56.00
2019-03-24T05:15:50.164Z,60.00
2019-03-24T05:16:50.035Z,68.00
2019-03-24T05:17:49.900Z,72.00
2019-03-24T05:18:49.765Z,84.00
2019-03-24T05:19:49.639Z,92.00
2019-03-24T05:20:49.509Z,100.00
2019-03-24T05:21:49.376Z,108.00
2019-03-24T05:22:49.247Z,116.00
2019-03-24T05:23:49.117Z,124.00
2019-03-24T05:24:48.984Z,136.00
2019-03-24T05:25:48.855Z,140.00
2019-03-24T05:26:48.724Z,152.00
2019-03-24T05:27:48.596Z,160.00
2019-03-24T05:28:48.464Z,168.00
2019-03-24T05:29:48.334Z,180.00
2019-03-24T05:30:48.201Z,188.00
2019-03-24T05:31:48.073Z,200.00
2019-03-24T05:32:47.945Z,204.00
2019-03-24T05:33:47.814Z,216.00
2019-03-24T05:34:47.680Z,228.00
2019-03-24T05:35:47.554Z,236.00
2019-03-24T05:36:47.421Z,248.00
2019-03-24T05:37:47.291Z,256.00
2019-03-24T05:38:47.160Z,264.00
2019-03-24T05:39:47.032Z,276.00
2019-03-24T05:40:46.898Z,284.00
2019-03-24T05:41:46.770Z,292.00
2019-03-24T05:42:46.652Z,300.00
2019-03-24T05:43:46.511Z,312.00
2019-03-24T05:44:46.376Z,316.00
2019-03-24T05:45:46.247Z,324.00
2019-03-24T05:46:46.118Z,332.00
2019-03-24T05:47:45.985Z,336.00
2019-03-24T05:48:45.858Z,344.00
2019-03-24T05:49:45.727Z,348.00
2019-03-24T05:50:45.595Z,356.00
2019-03-24T05:51:45.466Z,360.00
2019-03-24T05:52:45.341Z,368.00
2019-03-24T05:53:45.208Z,376.00
2019-03-24T05:54:45.078Z,380.00
2019-03-24T05:55:44.945Z,392.00
2019-03-24T05:56:44.812Z,396.00
2019-03-24T05:57:44.685Z,404.00
2019-03-24T05:58:44.552Z,408.00
2019-03-24T05:59:44.423Z,412.00
2019-03-24T06:00:44.304Z,416.00
2019-03-24T06:01:44.162Z,420.00
2019-03-24T06:02:44.032Z,428.00
2019-03-24T06:03:43.905Z,432.00
2019-03-24T06:04:43.773Z,432.00
2019-03-24T06:05:43.643Z,444.00
2019-03-24T06:06:43.511Z,448.00
2019-03-24T06:07:44.278Z,456.00
2019-03-24T06:08:43.255Z,460.00
2019-03-24T06:09:43.125Z,464.00
2019-03-24T06:10:42.991Z,472.00
2019-03-24T06:11:42.863Z,476.00
2019-03-24T06:12:42.731Z,476.00
2019-03-24T06:13:42.604Z,484.00
2019-03-24T06:14:42.472Z,488.00
2019-03-24T06:15:42.341Z,496.00
2019-03-24T06:16:42.212Z,500.00
2019-03-24T06:17:47.888Z,504.00
2019-03-24T06:18:41.952Z,508.00
2019-03-24T06:19:41.821Z,516.00
2019-03-24T06:20:41.693Z,524.00
2019-03-24T06:21:41.560Z,532.00
2019-03-24T06:22:41.430Z,544.00
2019-03-24T06:23:41.305Z,572.00
2019-03-24T06:24:41.172Z,616.00
2019-03-24T06:25:41.041Z,684.00
2019-03-24T06:26:40.912Z,760.00
2019-03-24T06:27:40.782Z,848.00
2019-03-24T06:28:40.651Z,948.00
2019-03-24T06:29:42.380Z,1044.00
2019-03-24T06:30:40.395Z,1116.00
2019-03-24T06:31:40.267Z,1156.00
2019-03-24T06:32:40.136Z,1180.00
2019-03-24T06:33:40.004Z,1188.00
2019-03-24T06:34:39.874Z,1196.00
2019-03-24T06:35:39.746Z,1204.00
2019-03-24T06:36:40.288Z,1212.00
2019-03-24T06:37:39.489Z,1228.00
2019-03-24T06:38:39.361Z,1232.00
2019-03-24T06:39:39.229Z,1240.00
2019-03-24T06:40:39.102Z,1252.00
2019-03-24T06:41:38.978Z,1256.00
2019-03-24T06:42:38.848Z,1264.00
2019-03-24T06:43:38.716Z,1276.00
2019-03-24T06:44:38.588Z,1284.00
2019-03-24T06:45:38.462Z,1288.00
2019-03-24T06:46:38.330Z,1304.00
2019-03-24T06:47:38.204Z,1312.00
2019-03-24T06:48:38.078Z,1320.00
2019-03-24T06:49:37.952Z,1328.00
2019-03-24T06:50:37.820Z,1340.00
2019-03-24T06:51:37.693Z,1344.00
2019-03-24T06:52:37.567Z,1356.00
2019-03-24T06:53:37.440Z,1364.00
2019-03-24T06:54:37.310Z,1368.00
2019-03-24T06:55:37.185Z,1380.00
2019-03-24T06:56:37.056Z,1384.00
2019-03-24T06:57:36.935Z,1388.00
2019-03-24T06:58:36.801Z,1396.00
2019-03-24T06:59:36.676Z,1404.00
2019-03-24T07:00:36.550Z,1404.00
2019-03-24T07:01:36.420Z,1412.00
2019-03-24T07:02:36.294Z,1416.00
2019-03-24T07:03:36.170Z,1420.00
2019-03-24T07:04:36.040Z,1428.00
2019-03-24T07:05:36.311Z,1432.00
2019-03-24T07:06:35.793Z,1440.00
2019-03-24T07:07:35.658Z,1440.00
2019-03-24T07:08:35.534Z,1452.00
2019-03-24T07:09:35.409Z,1456.00
2019-03-24T07:10:35.279Z,1464.00
2019-03-24T07:11:35.154Z,1468.00
2019-03-24T07:12:35.026Z,1468.00
2019-03-24T07:13:34.900Z,1476.00
2019-03-24T07:14:34.773Z,1484.00
2019-03-24T07:15:34.647Z,1492.00
2019-03-24T07:16:34.524Z,1496.00
2019-03-24T07:17:34.396Z,1500.00
2019-03-24T07:18:34.266Z,1512.00
2019-03-24T07:19:34.143Z,1512.00
2019-03-24T07:20:34.019Z,1520.00
2019-03-24T07:21:33.890Z,1528.00
2019-03-24T07:22:33.763Z,1516.00
2019-03-24T07:23:33.643Z,1516.00
2019-03-24T07:24:33.513Z,1516.00
2019-03-24T07:25:33.389Z,1500.00
2019-03-24T07:26:33.262Z,1512.00
2019-03-24T07:27:33.137Z,1536.00
2019-03-24T07:28:33.012Z,1548.00
2019-03-24T07:29:32.890Z,1544.00
2019-03-24T07:30:32.763Z,1560.00
2019-03-24T07:31:32.639Z,1568.00
2019-03-24T07:32:32.510Z,1576.00
2019-03-24T07:33:32.387Z,1588.00
2019-03-24T07:34:32.338Z,1596.00
2019-03-24T07:35:32.134Z,1600.00
2019-03-24T07:36:32.011Z,1608.00
2019-03-24T07:37:31.888Z,1612.00
2019-03-24T07:38:31.761Z,1628.00
2019-03-24T07:39:31.637Z,1636.00
2019-03-24T07:40:31.513Z,1632.00
2019-03-24T07:41:31.386Z,1652.00
2019-03-24T07:42:31.261Z,1656.00
2019-03-24T07:43:31.139Z,1664.00
2019-03-24T07:44:31.017Z,1668.00
2019-03-24T07:45:30.890Z,1680.00
2019-03-24T07:46:30.765Z,1688.00
2019-03-24T07:47:30.642Z,1688.00
2019-03-24T07:48:30.516Z,1692.00
2019-03-24T07:49:30.395Z,1700.00
2019-03-24T07:50:30.267Z,1708.00
2019-03-24T07:51:30.156Z,1712.00
2019-03-24T07:52:30.023Z,1720.00
2019-03-24T07:53:29.896Z,1728.00
2019-03-24T07:54:29.775Z,1736.00
2019-03-24T07:55:29.679Z,1740.00
2019-03-24T07:56:29.531Z,1752.00
2019-03-24T07:57:29.400Z,1760.00
2019-03-24T07:58:29.279Z,1764.00
2019-03-24T07:59:29.154Z,1768.00
2019-03-24T08:00:29.031Z,1780.00
2019-03-24T08:01:28.912Z,1784.00
2019-03-24T08:02:28.787Z,1784.00
2019-03-24T08:03:28.667Z,1788.00
2019-03-24T08:04:28.537Z,1792.00
2019-03-24T08:05:28.415Z,1760.00
2019-03-24T08:06:28.293Z,1796.00
2019-03-24T08:07:28.168Z,1812.00
2019-03-24T08:08:28.045Z,1812.00
2019-03-24T08:09:27.923Z,1816.00
2019-03-24T08:10:27.799Z,1824.00
2019-03-24T08:11:27.674Z,1824.00
2019-03-24T08:12:27.552Z,1824.00
2019-03-24T08:13:27.433Z,1832.00
2019-03-24T08:14:27.308Z,1840.00
2019-03-24T08:15:27.183Z,1844.00
2019-03-24T08:16:27.071Z,1852.00
2019-03-24T08:17:26.939Z,1860.00
2019-03-24T08:18:30.154Z,1868.00
2019-03-24T08:19:26.693Z,1876.00
2019-03-24T08:20:26.569Z,1880.00
2019-03-24T08:21:26.447Z,1884.00
2019-03-24T08:22:26.325Z,1888.00
2019-03-24T08:23:26.203Z,1892.00
2019-03-24T08:24:26.080Z,1896.00
2019-03-24T08:25:25.955Z,1904.00
2019-03-24T08:26:25.835Z,1912.00
2019-03-24T08:27:25.714Z,1920.00
2019-03-24T08:28:25.595Z,1916.00
2019-03-24T08:29:25.469Z,1932.00
2019-03-24T08:30:25.568Z,1928.00
2019-03-24T08:31:25.227Z,1936.00
2019-03-24T08:32:25.255Z,1944.00
2019-03-24T08:33:24.982Z,1944.00
2019-03-24T08:34:25.061Z,1952.00
2019-03-24T08:35:24.888Z,1956.00
2019-03-24T08:36:24.613Z,1952.00
2019-03-24T08:37:24.489Z,1976.00
2019-03-24T08:38:24.364Z,1976.00
2019-03-24T08:39:24.372Z,1984.00
2019-03-24T08:40:24.122Z,1992.00
2019-03-24T08:41:24.000Z,1996.00
2019-03-24T08:42:24.492Z,1984.00
2019-03-24T08:43:23.755Z,1980.00
2019-03-24T08:44:23.668Z,2004.00
2019-03-24T08:45:23.514Z,2020.00
2019-03-24T08:46:23.548Z,2036.00
2019-03-24T08:47:23.269Z,2036.00
2019-03-24T08:48:23.270Z,2036.00
2019-03-24T08:49:23.041Z,2036.00
2019-03-24T08:50:22.902Z,2040.00
2019-03-24T08:51:22.780Z,2036.00
2019-03-24T08:52:22.656Z,2048.00
2019-03-24T08:53:22.537Z,2060.00
2019-03-24T08:54:22.426Z,2064.00
2019-03-24T08:55:22.294Z,2068.00
2019-03-24T08:56:22.174Z,2072.00
2019-03-24T08:57:22.050Z,2080.00
2019-03-24T08:58:21.928Z,2080.00
2019-03-24T08:59:21.808Z,2088.00
2019-03-24T09:00:30.127Z,2092.00
2019-03-24T09:01:21.577Z,2096.00
2019-03-24T09:02:22.430Z,2096.00
2019-03-24T09:03:21.322Z,2096.00
2019-03-24T09:04:21.202Z,2092.00
2019-03-24T09:05:21.083Z,2108.00
2019-03-24T09:06:20.957Z,2112.00
2019-03-24T09:07:21.094Z,2112.00
2019-03-24T09:08:20.718Z,2116.00
2019-03-24T09:09:20.595Z,2124.00
2019-03-24T09:10:20.474Z,2124.00
2019-03-24T09:11:30.618Z,2128.00
2019-03-24T09:12:20.234Z,2132.00
2019-03-24T09:13:20.113Z,2144.00
2019-03-24T09:14:19.991Z,2152.00
2019-03-24T09:15:19.876Z,2152.00
2019-03-24T09:16:19.750Z,2148.00
2019-03-24T09:17:19.629Z,2160.00
2019-03-24T09:18:19.512Z,2164.00
2019-03-24T09:19:19.391Z,2168.00
2019-03-24T09:20:20.294Z,2168.00
2019-03-24T09:21:19.688Z,2176.00
2019-03-24T09:22:19.051Z,2184.00
2019-03-24T09:23:18.903Z,2188.00
2019-03-24T09:24:18.783Z,2200.00
2019-03-24T09:25:18.673Z,2208.00
2019-03-24T09:26:18.552Z,2240.00
2019-03-24T09:27:18.423Z,2252.00
2019-03-24T09:28:18.306Z,2268.00
2019-03-24T09:29:18.187Z,2284.00
2019-03-24T09:30:18.068Z,2292.00
2019-03-24T09:31:18.463Z,2300.00
2019-03-24T09:32:18.092Z,2300.00
2019-03-24T09:33:17.705Z,2304.00
2019-03-24T09:34:17.583Z,2312.00
2019-03-24T09:35:17.464Z,2312.00
2019-03-24T09:36:17.344Z,2316.00
2019-03-24T09:37:17.403Z,2328.00
2019-03-24T09:38:17.105Z,2336.00
2019-03-24T09:39:16.985Z,2348.00
2019-03-24T09:40:18.633Z,2364.00
2019-03-24T09:41:16.745Z,2368.00
2019-03-24T09:42:16.626Z,2380.00
2019-03-24T09:43:16.508Z,2384.00
2019-03-24T09:44:16.388Z,2396.00
2019-03-24T09:45:16.271Z,2404.00
2019-03-24T09:46:16.149Z,2408.00
2019-03-24T09:47:16.035Z,2420.00
2019-03-24T09:48:15.910Z,2432.00
2019-03-24T09:49:15.793Z,2444.00
2019-03-24T09:50:15.669Z,2468.00
2019-03-24T09:51:15.554Z,2496.00
2019-03-24T09:52:15.434Z,2520.00
2019-03-24T09:53:15.312Z,2532.00
2019-03-24T09:54:15.195Z,2540.00
2019-03-24T09:55:15.077Z,2548.00
2019-03-24T09:56:14.956Z,2556.00
2019-03-24T09:57:14.837Z,2556.00
2019-03-24T09:58:14.721Z,2560.00
2019-03-24T09:59:14.598Z,2560.00
2019-03-24T10:00:14.516Z,2560.00
2019-03-24T10:01:14.362Z,2560.00
2019-03-24T10:02:14.245Z,2564.00
2019-03-24T10:03:14.124Z,2560.00
2019-03-24T10:04:14.005Z,2564.00
2019-03-24T10:05:13.899Z,2560.00
2019-03-24T10:06:13.766Z,2564.00
2019-03-24T10:07:13.651Z,2564.00
2019-03-24T10:08:13.527Z,2568.00
2019-03-24T10:09:13.410Z,2568.00
2019-03-24T10:10:13.292Z,2568.00
2019-03-24T10:11:13.172Z,2568.00
2019-03-24T10:12:13.054Z,2568.00
2019-03-24T10:13:12.934Z,2572.00
2019-03-24T10:14:12.815Z,2576.00
2019-03-24T10:15:12.696Z,2580.00
2019-03-24T10:16:12.579Z,2592.00
2019-03-24T10:17:12.461Z,2596.00
2019-03-24T10:18:12.341Z,2604.00
2019-03-24T10:19:14.330Z,2604.00
2019-03-24T10:20:12.108Z,2612.00
2019-03-24T10:21:11.985Z,2616.00
2019-03-24T10:22:11.867Z,2620.00
2019-03-24T10:23:11.800Z,2636.00
2019-03-24T10:24:11.677Z,2572.00
2019-03-24T10:25:11.584Z,2680.00
2019-03-24T10:26:11.393Z,2704.00
2019-03-24T10:27:11.272Z,2736.00
2019-03-24T10:28:11.154Z,2764.00
2019-03-24T10:29:11.032Z,2784.00
2019-03-24T10:30:10.957Z,2796.00
2019-03-24T10:31:10.796Z,2808.00
2019-03-24T10:32:10.675Z,2812.00
2019-03-24T10:33:10.570Z,2820.00
2019-03-24T10:34:10.436Z,2824.00
2019-03-24T10:35:10.346Z,2832.00
2019-03-24T10:36:10.250Z,2836.00
2019-03-24T10:37:10.087Z,2844.00
2019-03-24T10:38:09.988Z,2844.00
2019-03-24T10:39:09.902Z,2848.00
2019-03-24T10:40:09.761Z,2856.00
2019-03-24T10:41:09.771Z,2856.00
2019-03-24T10:42:09.497Z,2860.00
2019-03-24T10:43:09.428Z,2864.00
2019-03-24T10:44:09.264Z,2868.00
2019-03-24T10:45:09.331Z,2872.00
2019-03-24T10:46:09.016Z,2880.00
2019-03-24T10:47:08.900Z,2888.00
2019-03-24T10:49:25.094Z,2896.00
2019-03-24T10:50:21.416Z,2904.00
2019-03-24T10:52:15.067Z,2912.00
2019-03-24T10:53:14.919Z,2920.00
2019-03-24T10:55:07.602Z,2936.00
2019-03-24T10:56:07.467Z,2932.00
2019-03-24T10:58:00.238Z,2944.00
2019-03-24T10:59:00.101Z,2952.00
2019-03-24T11:00:52.776Z,2972.00
2019-03-24T11:01:52.652Z,2972.00
2019-03-24T11:03:45.333Z,2988.00
2019-03-24T11:04:45.209Z,3000.00
2019-03-24T11:06:37.883Z,3008.00
2019-03-24T11:07:37.758Z,3020.00
2019-03-24T11:09:30.440Z,3028.00
2019-03-24T11:10:30.317Z,3036.00
2019-03-24T11:12:23.046Z,3056.00
2019-03-24T11:13:23.959Z,3060.00
2019-03-24T11:15:15.548Z,3080.00
2019-03-24T11:16:15.423Z,3084.00
2019-03-24T11:18:08.095Z,3104.00
2019-03-24T11:19:07.973Z,3112.00
2019-03-24T11:21:01.324Z,3128.00
2019-03-24T11:22:00.571Z,3136.00
2019-03-24T11:23:54.060Z,3152.00
2019-03-24T11:24:53.937Z,3152.00
2019-03-24T11:26:46.622Z,3160.00
2019-03-24T11:27:46.493Z,3160.00
2019-03-24T11:29:39.176Z,3176.00
2019-03-24T11:30:39.048Z,3176.00
2019-03-24T11:32:31.726Z,3192.00
2019-03-24T11:33:31.647Z,3196.00
2019-03-24T11:35:24.277Z,3200.00
2019-03-24T11:36:24.154Z,3208.00
2019-03-24T11:38:16.830Z,3212.00
2019-03-24T11:39:16.705Z,3216.00
2019-03-24T11:41:09.382Z,3184.00
2019-03-24T11:42:09.260Z,3220.00
2019-03-24T11:44:01.931Z,3228.00
2019-03-24T11:45:01.816Z,3232.00
2019-03-24T11:46:54.541Z,3228.00
2019-03-24T11:47:54.360Z,3236.00
2019-03-24T11:49:49.126Z,3248.00
2019-03-24T11:50:47.760Z,3252.00
2019-03-24T11:52:40.443Z,3260.00
2019-03-24T11:53:40.317Z,3276.00
2019-03-24T11:55:33.023Z,3280.00
2019-03-24T11:56:32.865Z,3284.00
2019-03-24T11:58:25.543Z,3288.00
2019-03-24T11:59:25.417Z,3288.00
2019-03-24T12:01:18.092Z,3276.00
2019-03-24T12:02:17.967Z,3268.00
2019-03-24T12:04:10.652Z,3292.00
2019-03-24T12:05:10.523Z,3304.00
2019-03-24T12:07:03.205Z,3324.00
2019-03-24T12:08:03.082Z,3328.00
2019-03-24T12:09:56.125Z,3320.00
2019-03-24T12:10:55.838Z,3316.00
2019-03-24T12:12:48.516Z,3312.00
2019-03-24T12:13:48.391Z,3316.00
2019-03-24T12:15:41.066Z,3316.00
2019-03-24T12:16:40.938Z,3320.00
2019-03-24T12:18:34.468Z,3312.00
2019-03-24T12:19:34.349Z,3316.00
2019-03-24T12:21:27.033Z,3312.00
2019-03-24T12:22:26.901Z,3312.00
2019-03-24T12:24:34.660Z,3324.00
2019-03-24T12:25:34.539Z,3296.00
2019-03-24T12:27:27.212Z,3316.00
2019-03-24T12:28:27.086Z,3328.00
2019-03-24T12:30:20.837Z,3352.00
2019-03-24T12:31:20.489Z,3360.00
2019-03-24T12:33:13.166Z,3364.00
2019-03-24T12:34:13.041Z,3364.00
2019-03-24T12:36:05.736Z,3364.00
2019-03-24T12:37:05.608Z,3352.00
2019-03-24T12:38:58.286Z,3380.00
2019-03-24T12:39:58.225Z,3384.00
2019-03-24T12:41:50.848Z,3452.00
2019-03-24T12:42:50.725Z,3480.00
2019-03-24T12:44:43.400Z,3520.00
2019-03-24T12:45:43.276Z,3528.00
2019-03-24T12:47:35.952Z,3548.00
2019-03-24T12:48:35.829Z,3572.00
2019-03-24T12:49:35.714Z,3568.00
2019-03-24T12:50:35.595Z,3600.00
2019-03-24T12:51:35.480Z,3624.00
2019-03-24T12:52:35.361Z,3652.00
2019-03-24T12:53:35.246Z,3676.00
2019-03-24T12:54:35.127Z,3704.00
2019-03-24T12:55:35.010Z,3728.00
2019-03-24T12:56:34.890Z,3740.00
2019-03-24T12:57:34.774Z,3760.00
2019-03-24T12:58:34.656Z,3788.00
2019-03-24T12:59:34.536Z,3804.00
2019-03-24T13:00:34.425Z,3828.00
2019-03-24T13:01:34.304Z,3844.00
2019-03-24T13:02:34.183Z,3876.00
2019-03-24T13:03:35.923Z,3892.00
2019-03-24T13:04:33.949Z,3908.00
2019-03-24T13:05:33.851Z,3920.00
2019-03-24T13:06:33.715Z,3936.00
2019-03-24T13:07:33.593Z,3944.00
2019-03-24T13:08:33.477Z,3948.00
2019-03-24T13:09:33.775Z,3960.00
2019-03-24T13:10:33.239Z,3972.00
2019-03-24T13:11:33.122Z,3976.00
2019-03-24T13:12:33.007Z,3996.00